ITY1198 LICR-LIML
Flight info
| Callsign | ITY1198 |
|---|---|
| Flight time | 1h 33m |
| Altitude | 38000 |
| Route | PAZZE L869 PIGER DCT DIRED DCT PNZ DCT TORLI DCT GILIO DCT KARDU DCT EMBOS DCT GIPIX DCT KALMO |
| Aircraft | A319/M-SDE3FGHIRWY/LB1 |
Departure
| Time | 2026-04-22 19:36 |
|---|---|
| Airport | Reggio Calabria Airport (LICR) |
Arrival
| Time | 2026-04-22 21:10 |
|---|---|
| Airport | Milano Linate Airport (LIML) |
| Time | Latitude | Longitude | Altitude | Speed | Heading |
|---|---|---|---|---|---|
| 2026-04-22 19:16 | 38.07306 | 15.65341 | 57 ft | 0 kts | 114° |
| 2026-04-22 19:31 | 38.07302 | 15.65349 | 57 ft | 2 kts | 131° |
| 2026-04-22 19:31 | 38.07277 | 15.65347 | 56 ft | 5 kts | 228° |
| 2026-04-22 19:32 | 38.07288 | 15.65303 | 57 ft | 5 kts | 316° |
| 2026-04-22 19:32 | 38.07315 | 15.65272 | 58 ft | 5 kts | 319° |
| 2026-04-22 19:32 | 38.07335 | 15.65233 | 58 ft | 5 kts | 282° |
| 2026-04-22 19:32 | 38.07320 | 15.65180 | 58 ft | 8 kts | 242° |
| 2026-04-22 19:33 | 38.07288 | 15.65104 | 57 ft | 10 kts | 242° |
| 2026-04-22 19:33 | 38.07217 | 15.65095 | 55 ft | 13 kts | 152° |
| 2026-04-22 19:33 | 38.07123 | 15.65159 | 53 ft | 15 kts | 153° |
| 2026-04-22 19:33 | 38.07021 | 15.65224 | 52 ft | 17 kts | 154° |
| 2026-04-22 19:34 | 38.06911 | 15.65296 | 51 ft | 18 kts | 150° |
| 2026-04-22 19:34 | 38.06794 | 15.65375 | 49 ft | 19 kts | 153° |
| 2026-04-22 19:34 | 38.06673 | 15.65453 | 49 ft | 19 kts | 153° |
| 2026-04-22 19:34 | 38.06552 | 15.65533 | 49 ft | 19 kts | 144° |
| 2026-04-22 19:35 | 38.06475 | 15.65617 | 49 ft | 9 kts | 211° |
| 2026-04-22 19:35 | 38.06500 | 15.65559 | 49 ft | 0 kts | 332° |
| 2026-04-22 19:35 | 38.06502 | 15.65557 | 49 ft | 1 kts | 332° |
| 2026-04-22 19:35 | 38.06520 | 15.65546 | 49 ft | 3 kts | 335° |
| 2026-04-22 19:36 | 38.06685 | 15.65437 | 49 ft | 64 kts | 333° |
| 2026-04-22 19:36 | 38.07314 | 15.65029 | 58 ft | 134 kts | 333° |
| 2026-04-22 19:36 | 38.08237 | 15.64428 | 411 ft | 157 kts | 334° |
| 2026-04-22 19:36 | 38.09235 | 15.63878 | 1107 ft | 159 kts | 339° |
| 2026-04-22 19:37 | 38.10250 | 15.63377 | 1850 ft | 158 kts | 341° |
| 2026-04-22 19:37 | 38.11266 | 15.62920 | 2596 ft | 156 kts | 342° |
| 2026-04-22 19:37 | 38.12271 | 15.62444 | 3255 ft | 159 kts | 342° |
| 2026-04-22 19:37 | 38.13358 | 15.61954 | 3744 ft | 175 kts | 342° |
| 2026-04-22 19:38 | 38.14549 | 15.61402 | 4243 ft | 193 kts | 342° |
| 2026-04-22 19:38 | 38.15880 | 15.60954 | 4813 ft | 208 kts | 351° |
| 2026-04-22 19:38 | 38.17391 | 15.60657 | 5369 ft | 228 kts | 351° |
| 2026-04-22 19:38 | 38.18995 | 15.60331 | 5949 ft | 247 kts | 349° |
| 2026-04-22 19:39 | 38.20743 | 15.59955 | 6557 ft | 264 kts | 349° |
| 2026-04-22 19:39 | 38.22563 | 15.59564 | 7409 ft | 270 kts | 349° |
| 2026-04-22 19:39 | 38.24415 | 15.59171 | 8357 ft | 272 kts | 348° |
| 2026-04-22 19:39 | 38.26253 | 15.58785 | 9261 ft | 275 kts | 348° |
| 2026-04-22 19:40 | 38.28137 | 15.58389 | 10171 ft | 277 kts | 347° |
| 2026-04-22 19:40 | 38.30040 | 15.57986 | 10865 ft | 286 kts | 346° |
| 2026-04-22 19:40 | 38.31951 | 15.57126 | 11279 ft | 299 kts | 328° |
| 2026-04-22 19:40 | 38.33707 | 15.55671 | 11876 ft | 309 kts | 323° |
| 2026-04-22 19:41 | 38.35475 | 15.54093 | 12721 ft | 311 kts | 323° |
| 2026-04-22 19:41 | 38.37241 | 15.52541 | 13527 ft | 314 kts | 323° |
| 2026-04-22 19:41 | 38.39056 | 15.50977 | 14295 ft | 317 kts | 323° |
| 2026-04-22 19:41 | 38.40877 | 15.49428 | 15037 ft | 320 kts | 323° |
| 2026-04-22 19:42 | 38.42755 | 15.47844 | 15772 ft | 323 kts | 323° |
| 2026-04-22 19:42 | 38.44634 | 15.46266 | 16486 ft | 326 kts | 323° |
| 2026-04-22 19:42 | 38.46526 | 15.44683 | 17173 ft | 329 kts | 323° |
| 2026-04-22 19:42 | 38.48425 | 15.43097 | 17837 ft | 332 kts | 323° |
| 2026-04-22 19:43 | 38.52311 | 15.39854 | 19101 ft | 338 kts | 323° |
| 2026-04-22 19:43 | 38.54288 | 15.38204 | 19704 ft | 341 kts | 323° |
| 2026-04-22 19:43 | 38.56262 | 15.36556 | 20297 ft | 344 kts | 323° |
| 2026-04-22 19:44 | 38.58273 | 15.34878 | 20890 ft | 346 kts | 322° |
| 2026-04-22 19:44 | 38.60283 | 15.33198 | 21468 ft | 349 kts | 323° |
| 2026-04-22 19:44 | 38.62338 | 15.31482 | 22035 ft | 352 kts | 322° |
| 2026-04-22 19:44 | 38.64373 | 15.29780 | 22561 ft | 356 kts | 322° |
| 2026-04-22 19:45 | 38.66445 | 15.28046 | 23081 ft | 359 kts | 322° |
| 2026-04-22 19:45 | 38.68550 | 15.26284 | 23584 ft | 362 kts | 322° |
| 2026-04-22 19:45 | 38.70638 | 15.24535 | 24088 ft | 364 kts | 322° |
| 2026-04-22 19:45 | 38.72777 | 15.22743 | 24592 ft | 367 kts | 322° |
| 2026-04-22 19:46 | 38.74916 | 15.20947 | 25059 ft | 369 kts | 322° |
| 2026-04-22 19:46 | 38.77075 | 15.19133 | 25514 ft | 372 kts | 322° |
| 2026-04-22 19:46 | 38.79236 | 15.17316 | 25961 ft | 375 kts | 322° |
| 2026-04-22 19:46 | 38.81409 | 15.15490 | 26406 ft | 377 kts | 322° |
| 2026-04-22 19:47 | 38.83604 | 15.13643 | 26833 ft | 380 kts | 322° |
| 2026-04-22 19:47 | 38.85810 | 15.11787 | 27242 ft | 382 kts | 322° |
| 2026-04-22 19:47 | 38.87292 | 15.10538 | 27521 ft | 383 kts | 322° |
| 2026-04-22 19:47 | 38.90282 | 15.08017 | 28051 ft | 387 kts | 322° |
| 2026-04-22 19:48 | 38.92521 | 15.06128 | 28444 ft | 389 kts | 322° |
| 2026-04-22 19:48 | 38.94794 | 15.04208 | 28826 ft | 391 kts | 322° |
| 2026-04-22 19:48 | 38.97057 | 15.02294 | 29185 ft | 393 kts | 322° |
| 2026-04-22 19:48 | 38.99356 | 15.00349 | 29534 ft | 395 kts | 322° |
| 2026-04-22 19:49 | 39.01648 | 14.98408 | 29896 ft | 397 kts | 322° |
| 2026-04-22 19:49 | 39.03942 | 14.96464 | 30241 ft | 399 kts | 322° |
| 2026-04-22 19:49 | 39.06259 | 14.94500 | 30562 ft | 401 kts | 323° |
| 2026-04-22 19:49 | 39.08607 | 14.92508 | 30909 ft | 402 kts | 322° |
| 2026-04-22 19:50 | 39.10908 | 14.90556 | 31362 ft | 400 kts | 322° |
| 2026-04-22 19:50 | 39.13235 | 14.88579 | 31831 ft | 398 kts | 322° |
| 2026-04-22 19:50 | 39.15545 | 14.86617 | 32252 ft | 397 kts | 322° |
| 2026-04-22 19:50 | 39.17821 | 14.84680 | 32653 ft | 396 kts | 322° |
| 2026-04-22 19:51 | 39.20122 | 14.82719 | 33052 ft | 395 kts | 322° |
| 2026-04-22 19:51 | 39.22406 | 14.80772 | 33444 ft | 394 kts | 322° |
| 2026-04-22 19:51 | 39.24696 | 14.78818 | 33823 ft | 393 kts | 322° |
| 2026-04-22 19:51 | 39.26956 | 14.76888 | 34180 ft | 392 kts | 322° |
| 2026-04-22 19:52 | 39.29208 | 14.74964 | 34506 ft | 392 kts | 322° |
| 2026-04-22 19:52 | 39.31494 | 14.73007 | 34767 ft | 393 kts | 322° |
| 2026-04-22 19:52 | 39.33756 | 14.71070 | 34993 ft | 395 kts | 322° |
| 2026-04-22 19:52 | 39.36033 | 14.69120 | 35226 ft | 396 kts | 322° |
| 2026-04-22 19:53 | 39.38337 | 14.67147 | 35460 ft | 397 kts | 322° |
| 2026-04-22 19:53 | 39.40644 | 14.65167 | 35673 ft | 398 kts | 322° |
| 2026-04-22 19:53 | 39.42172 | 14.63856 | 35802 ft | 399 kts | 322° |
| 2026-04-22 19:53 | 39.45259 | 14.61205 | 35997 ft | 400 kts | 322° |
| 2026-04-22 19:54 | 39.49862 | 14.57245 | 36006 ft | 400 kts | 322° |
| 2026-04-22 19:54 | 39.54487 | 14.53234 | 36008 ft | 400 kts | 321° |
| 2026-04-22 19:55 | 39.58856 | 14.48813 | 36011 ft | 397 kts | 316° |
| 2026-04-22 19:55 | 39.63030 | 14.44128 | 36017 ft | 397 kts | 316° |
| 2026-04-22 19:56 | 39.67175 | 14.39447 | 36023 ft | 397 kts | 316° |
| 2026-04-22 19:56 | 39.71337 | 14.34740 | 36030 ft | 397 kts | 315° |
| 2026-04-22 19:57 | 39.75465 | 14.30060 | 36034 ft | 397 kts | 315° |
| 2026-04-22 19:57 | 39.79640 | 14.25324 | 36035 ft | 396 kts | 315° |
| 2026-04-22 19:58 | 39.83767 | 14.20635 | 36035 ft | 396 kts | 315° |
| 2026-04-22 19:58 | 39.87895 | 14.15936 | 36035 ft | 396 kts | 315° |
| 2026-04-22 20:00 | 40.02383 | 13.99379 | 36025 ft | 396 kts | 315° |
| 2026-04-22 20:01 | 40.06509 | 13.94646 | 36019 ft | 396 kts | 315° |
| 2026-04-22 20:01 | 40.10644 | 13.89895 | 36015 ft | 396 kts | 315° |
| 2026-04-22 20:02 | 40.14768 | 13.85149 | 36010 ft | 396 kts | 315° |
| 2026-04-22 20:02 | 40.18887 | 13.80401 | 36009 ft | 396 kts | 315° |
| 2026-04-22 20:03 | 40.22987 | 13.75665 | 36012 ft | 395 kts | 315° |
| 2026-04-22 20:03 | 40.27112 | 13.70894 | 36017 ft | 395 kts | 315° |
| 2026-04-22 20:04 | 40.31208 | 13.66148 | 36024 ft | 395 kts | 315° |
| 2026-04-22 20:04 | 40.35298 | 13.61400 | 36030 ft | 394 kts | 315° |
| 2026-04-22 20:05 | 40.39400 | 13.56632 | 36034 ft | 394 kts | 315° |
| 2026-04-22 20:05 | 40.43489 | 13.51869 | 36035 ft | 393 kts | 316° |
| 2026-04-22 20:06 | 40.47550 | 13.47132 | 36035 ft | 393 kts | 316° |
| 2026-04-22 20:06 | 40.51613 | 13.42384 | 36035 ft | 392 kts | 316° |
| 2026-04-22 20:07 | 40.55682 | 13.37619 | 36035 ft | 392 kts | 316° |
| 2026-04-22 20:07 | 40.59745 | 13.32856 | 36036 ft | 391 kts | 315° |
| 2026-04-22 20:08 | 40.63796 | 13.28099 | 36035 ft | 391 kts | 315° |
| 2026-04-22 20:08 | 40.67839 | 13.23343 | 36035 ft | 391 kts | 315° |
| 2026-04-22 20:09 | 40.71871 | 13.18590 | 36036 ft | 390 kts | 315° |
| 2026-04-22 20:09 | 40.75910 | 13.13823 | 36035 ft | 390 kts | 315° |
| 2026-04-22 20:10 | 40.79953 | 13.09043 | 36035 ft | 390 kts | 315° |
| 2026-04-22 20:10 | 40.83986 | 13.04264 | 36035 ft | 389 kts | 315° |
| 2026-04-22 20:11 | 40.87996 | 12.99506 | 36035 ft | 389 kts | 315° |
| 2026-04-22 20:11 | 40.91947 | 12.94665 | 36035 ft | 388 kts | 313° |
| 2026-04-22 20:12 | 40.95729 | 12.89580 | 36035 ft | 388 kts | 312° |
| 2026-04-22 20:12 | 40.98882 | 12.85314 | 36035 ft | 388 kts | 312° |
| 2026-04-22 20:13 | 41.03278 | 12.79355 | 36035 ft | 387 kts | 313° |
| 2026-04-22 20:13 | 41.07033 | 12.74256 | 36035 ft | 387 kts | 313° |
| 2026-04-22 20:14 | 41.10785 | 12.69150 | 36036 ft | 387 kts | 313° |
| 2026-04-22 20:14 | 41.14541 | 12.64034 | 36036 ft | 387 kts | 313° |
| 2026-04-22 20:15 | 41.18283 | 12.58927 | 36035 ft | 387 kts | 313° |
| 2026-04-22 20:15 | 41.22042 | 12.53785 | 36035 ft | 387 kts | 313° |
| 2026-04-22 20:16 | 41.25761 | 12.48691 | 36036 ft | 387 kts | 313° |
| 2026-04-22 20:16 | 41.29509 | 12.43548 | 36035 ft | 387 kts | 313° |
| 2026-04-22 20:17 | 41.33230 | 12.38432 | 36035 ft | 387 kts | 313° |
| 2026-04-22 20:17 | 41.36970 | 12.33281 | 36037 ft | 386 kts | 312° |
| 2026-04-22 20:18 | 41.40682 | 12.28160 | 36035 ft | 385 kts | 312° |
| 2026-04-22 20:18 | 41.44399 | 12.23025 | 36035 ft | 386 kts | 312° |
| 2026-04-22 20:19 | 41.48100 | 12.17901 | 36035 ft | 385 kts | 313° |
| 2026-04-22 20:19 | 41.51814 | 12.12751 | 36035 ft | 385 kts | 313° |
| 2026-04-22 20:20 | 41.55518 | 12.07606 | 36035 ft | 384 kts | 313° |
| 2026-04-22 20:20 | 41.59228 | 12.02440 | 36035 ft | 384 kts | 313° |
| 2026-04-22 20:21 | 41.62899 | 11.97324 | 36034 ft | 385 kts | 313° |
| 2026-04-22 20:21 | 41.66605 | 11.92154 | 36038 ft | 386 kts | 313° |
| 2026-04-22 20:22 | 41.70301 | 11.86989 | 36042 ft | 385 kts | 313° |
| 2026-04-22 20:22 | 41.74000 | 11.81808 | 36047 ft | 385 kts | 313° |
| 2026-04-22 20:23 | 41.77698 | 11.76620 | 36052 ft | 385 kts | 313° |
| 2026-04-22 20:23 | 41.81387 | 11.71435 | 36057 ft | 385 kts | 313° |
| 2026-04-22 20:24 | 41.85062 | 11.66260 | 36060 ft | 386 kts | 313° |
| 2026-04-22 20:24 | 41.88879 | 11.61216 | 36059 ft | 387 kts | 320° |
| 2026-04-22 20:25 | 41.93418 | 11.57273 | 36062 ft | 389 kts | 326° |
| 2026-04-22 20:25 | 41.98062 | 11.53583 | 36059 ft | 390 kts | 327° |
| 2026-04-22 20:26 | 42.02712 | 11.49879 | 36056 ft | 389 kts | 327° |
| 2026-04-22 20:26 | 42.07367 | 11.46157 | 36048 ft | 388 kts | 327° |
| 2026-04-22 20:27 | 42.11995 | 11.42448 | 36043 ft | 388 kts | 327° |
| 2026-04-22 20:27 | 42.16630 | 11.38725 | 36039 ft | 389 kts | 327° |
| 2026-04-22 20:28 | 42.21279 | 11.34986 | 36038 ft | 388 kts | 326° |
| 2026-04-22 20:28 | 42.25882 | 11.31274 | 36037 ft | 389 kts | 326° |
| 2026-04-22 20:29 | 42.30528 | 11.27523 | 36037 ft | 389 kts | 326° |
| 2026-04-22 20:29 | 42.35159 | 11.23777 | 36036 ft | 389 kts | 326° |
| 2026-04-22 20:30 | 42.39803 | 11.20014 | 36036 ft | 389 kts | 326° |
| 2026-04-22 20:30 | 42.44410 | 11.16273 | 36036 ft | 389 kts | 326° |
| 2026-04-22 20:31 | 42.49053 | 11.12509 | 36037 ft | 389 kts | 326° |
| 2026-04-22 20:31 | 42.53675 | 11.08772 | 36037 ft | 389 kts | 326° |
| 2026-04-22 20:32 | 42.58322 | 11.05007 | 36037 ft | 389 kts | 326° |
| 2026-04-22 20:32 | 42.62944 | 11.01252 | 36041 ft | 389 kts | 326° |
| 2026-04-22 20:33 | 42.67587 | 10.97477 | 36054 ft | 389 kts | 326° |
| 2026-04-22 20:33 | 42.72215 | 10.93706 | 36078 ft | 390 kts | 326° |
| 2026-04-22 20:34 | 42.76850 | 10.89922 | 36104 ft | 389 kts | 326° |
| 2026-04-22 20:34 | 42.81474 | 10.86140 | 36121 ft | 389 kts | 326° |
| 2026-04-22 20:35 | 42.86117 | 10.82334 | 36130 ft | 389 kts | 326° |
| 2026-04-22 20:35 | 42.90735 | 10.78545 | 36137 ft | 389 kts | 326° |
| 2026-04-22 20:36 | 42.95353 | 10.74749 | 36141 ft | 389 kts | 326° |
| 2026-04-22 20:36 | 42.99970 | 10.70946 | 36143 ft | 388 kts | 326° |
| 2026-04-22 20:37 | 43.04576 | 10.67145 | 36143 ft | 388 kts | 326° |
| 2026-04-22 20:37 | 43.09188 | 10.63332 | 36144 ft | 388 kts | 326° |
| 2026-04-22 20:38 | 43.13818 | 10.59500 | 36145 ft | 388 kts | 326° |
| 2026-04-22 20:38 | 43.18417 | 10.55687 | 36144 ft | 387 kts | 326° |
| 2026-04-22 20:39 | 43.22990 | 10.51887 | 36145 ft | 387 kts | 326° |
| 2026-04-22 20:39 | 43.27593 | 10.48054 | 36144 ft | 386 kts | 326° |
| 2026-04-22 20:40 | 43.32158 | 10.44245 | 36144 ft | 386 kts | 326° |
| 2026-04-22 20:40 | 43.36729 | 10.40425 | 36144 ft | 386 kts | 326° |
| 2026-04-22 20:41 | 43.41312 | 10.36590 | 36144 ft | 385 kts | 326° |
| 2026-04-22 20:41 | 43.45862 | 10.32775 | 35983 ft | 385 kts | 325° |
| 2026-04-22 20:41 | 43.48160 | 10.30845 | 35730 ft | 382 kts | 326° |
| 2026-04-22 20:42 | 43.50390 | 10.28971 | 35482 ft | 379 kts | 325° |
| 2026-04-22 20:42 | 43.52637 | 10.27084 | 35231 ft | 376 kts | 325° |
| 2026-04-22 20:42 | 43.54834 | 10.25236 | 34984 ft | 373 kts | 325° |
| 2026-04-22 20:42 | 43.57058 | 10.23362 | 34733 ft | 371 kts | 325° |
| 2026-04-22 20:43 | 43.59254 | 10.21510 | 34483 ft | 370 kts | 325° |
| 2026-04-22 20:43 | 43.61422 | 10.19679 | 34236 ft | 370 kts | 325° |
| 2026-04-22 20:43 | 43.63622 | 10.17821 | 33986 ft | 369 kts | 325° |
| 2026-04-22 20:43 | 43.65782 | 10.15994 | 33727 ft | 369 kts | 325° |
| 2026-04-22 20:44 | 43.67978 | 10.14137 | 33353 ft | 369 kts | 325° |
| 2026-04-22 20:44 | 43.70180 | 10.12272 | 32853 ft | 371 kts | 324° |
| 2026-04-22 20:44 | 43.72366 | 10.10420 | 32255 ft | 371 kts | 324° |
| 2026-04-22 20:44 | 43.74567 | 10.08553 | 31605 ft | 372 kts | 324° |
| 2026-04-22 20:45 | 43.76760 | 10.06694 | 30944 ft | 372 kts | 324° |
| 2026-04-22 20:45 | 43.78934 | 10.04847 | 30262 ft | 372 kts | 323° |
| 2026-04-22 20:45 | 43.81139 | 10.02972 | 29637 ft | 370 kts | 323° |
| 2026-04-22 20:45 | 43.83311 | 10.01121 | 29178 ft | 365 kts | 323° |
| 2026-04-22 20:46 | 43.87542 | 9.97514 | 28259 ft | 354 kts | 323° |
| 2026-04-22 20:46 | 43.89618 | 9.95739 | 27799 ft | 349 kts | 323° |
| 2026-04-22 20:46 | 43.91649 | 9.94004 | 27346 ft | 344 kts | 323° |
| 2026-04-22 20:47 | 43.93679 | 9.92266 | 26888 ft | 339 kts | 324° |
| 2026-04-22 20:47 | 43.95649 | 9.90581 | 26441 ft | 335 kts | 324° |
| 2026-04-22 20:47 | 43.97624 | 9.88897 | 26003 ft | 330 kts | 324° |
| 2026-04-22 20:47 | 43.99560 | 9.87259 | 25577 ft | 326 kts | 324° |
| 2026-04-22 20:48 | 44.01496 | 9.85617 | 25150 ft | 322 kts | 324° |
| 2026-04-22 20:48 | 44.03378 | 9.84020 | 24735 ft | 319 kts | 324° |
| 2026-04-22 20:48 | 44.05259 | 9.82422 | 24320 ft | 315 kts | 324° |
| 2026-04-22 20:48 | 44.07117 | 9.80841 | 23910 ft | 312 kts | 324° |
| 2026-04-22 20:49 | 44.08956 | 9.79276 | 23506 ft | 310 kts | 324° |
| 2026-04-22 20:49 | 44.10788 | 9.77714 | 23107 ft | 308 kts | 324° |
| 2026-04-22 20:49 | 44.12597 | 9.76171 | 22711 ft | 307 kts | 325° |
| 2026-04-22 20:49 | 44.14429 | 9.74606 | 22314 ft | 306 kts | 325° |
| 2026-04-22 20:50 | 44.16239 | 9.73061 | 21929 ft | 305 kts | 325° |
| 2026-04-22 20:50 | 44.18028 | 9.71532 | 21552 ft | 305 kts | 326° |
| 2026-04-22 20:50 | 44.19853 | 9.69971 | 21173 ft | 305 kts | 326° |
| 2026-04-22 20:50 | 44.21637 | 9.68445 | 20803 ft | 304 kts | 326° |
| 2026-04-22 20:51 | 44.23443 | 9.66900 | 20430 ft | 303 kts | 326° |
| 2026-04-22 20:51 | 44.25219 | 9.65379 | 20068 ft | 303 kts | 326° |
| 2026-04-22 20:51 | 44.27007 | 9.63847 | 19702 ft | 303 kts | 327° |
| 2026-04-22 20:51 | 44.28801 | 9.62307 | 19340 ft | 302 kts | 327° |
| 2026-04-22 20:52 | 44.30584 | 9.60775 | 18982 ft | 302 kts | 327° |
| 2026-04-22 20:52 | 44.32366 | 9.59246 | 18628 ft | 302 kts | 327° |
| 2026-04-22 20:52 | 44.34188 | 9.57737 | 18276 ft | 302 kts | 328° |
| 2026-04-22 20:52 | 44.35989 | 9.56264 | 17933 ft | 301 kts | 329° |
| 2026-04-22 20:53 | 44.37769 | 9.54809 | 17581 ft | 301 kts | 329° |
| 2026-04-22 20:53 | 44.39592 | 9.53317 | 17155 ft | 302 kts | 329° |
| 2026-04-22 20:53 | 44.41391 | 9.51841 | 16705 ft | 304 kts | 329° |
| 2026-04-22 20:53 | 44.43226 | 9.50334 | 16230 ft | 306 kts | 329° |
| 2026-04-22 20:54 | 44.45049 | 9.48835 | 15812 ft | 305 kts | 329° |
| 2026-04-22 20:54 | 44.46869 | 9.47338 | 15569 ft | 298 kts | 329° |
| 2026-04-22 20:54 | 44.48622 | 9.45894 | 15418 ft | 288 kts | 330° |
| 2026-04-22 20:54 | 44.50308 | 9.44505 | 15271 ft | 279 kts | 330° |
| 2026-04-22 20:55 | 44.51958 | 9.43144 | 15041 ft | 275 kts | 330° |
| 2026-04-22 20:55 | 44.53600 | 9.41784 | 14637 ft | 277 kts | 330° |
| 2026-04-22 20:55 | 44.55260 | 9.40409 | 14240 ft | 278 kts | 330° |
| 2026-04-22 20:55 | 44.56927 | 9.39028 | 13852 ft | 279 kts | 330° |
| 2026-04-22 20:56 | 44.58603 | 9.37697 | 13466 ft | 279 kts | 336° |
| 2026-04-22 20:56 | 44.60422 | 9.36786 | 13081 ft | 279 kts | 347° |
| 2026-04-22 20:56 | 44.62357 | 9.36384 | 12699 ft | 279 kts | 355° |
| 2026-04-22 20:56 | 44.64288 | 9.36173 | 12325 ft | 279 kts | 356° |
| 2026-04-22 20:57 | 44.66190 | 9.35991 | 11958 ft | 278 kts | 357° |
| 2026-04-22 20:57 | 44.68132 | 9.35804 | 11586 ft | 278 kts | 357° |
| 2026-04-22 20:57 | 44.70052 | 9.35616 | 11218 ft | 277 kts | 357° |
| 2026-04-22 20:57 | 44.71965 | 9.35424 | 10852 ft | 276 kts | 357° |
| 2026-04-22 20:58 | 44.73858 | 9.35232 | 10492 ft | 276 kts | 356° |
| 2026-04-22 20:58 | 44.75779 | 9.35034 | 10128 ft | 275 kts | 356° |
| 2026-04-22 20:58 | 44.77681 | 9.34837 | 9769 ft | 274 kts | 356° |
| 2026-04-22 20:58 | 44.79585 | 9.34639 | 9410 ft | 274 kts | 356° |
| 2026-04-22 20:59 | 44.81475 | 9.34442 | 9055 ft | 273 kts | 356° |
| 2026-04-22 20:59 | 44.83371 | 9.34244 | 8701 ft | 273 kts | 356° |
| 2026-04-22 20:59 | 44.85257 | 9.34047 | 8357 ft | 272 kts | 356° |
| 2026-04-22 20:59 | 44.87110 | 9.33853 | 8023 ft | 271 kts | 356° |
| 2026-04-22 21:00 | 44.89003 | 9.33656 | 7684 ft | 269 kts | 356° |
| 2026-04-22 21:00 | 44.90851 | 9.33462 | 7352 ft | 268 kts | 356° |
| 2026-04-22 21:00 | 44.92697 | 9.33268 | 7023 ft | 267 kts | 356° |
| 2026-04-22 21:00 | 44.94544 | 9.33074 | 6694 ft | 266 kts | 356° |
| 2026-04-22 21:01 | 44.96383 | 9.32880 | 6366 ft | 265 kts | 356° |
| 2026-04-22 21:01 | 44.98217 | 9.32688 | 6038 ft | 264 kts | 356° |
| 2026-04-22 21:01 | 45.00040 | 9.32497 | 5715 ft | 263 kts | 355° |
| 2026-04-22 21:01 | 45.01844 | 9.32307 | 5452 ft | 258 kts | 355° |
| 2026-04-22 21:02 | 45.03606 | 9.32120 | 5328 ft | 248 kts | 355° |
| 2026-04-22 21:02 | 45.05292 | 9.31942 | 5167 ft | 241 kts | 355° |
| 2026-04-22 21:02 | 45.06932 | 9.31768 | 4991 ft | 235 kts | 356° |
| 2026-04-22 21:02 | 45.08538 | 9.31597 | 4814 ft | 229 kts | 355° |
| 2026-04-22 21:03 | 45.10115 | 9.31426 | 4637 ft | 223 kts | 355° |
| 2026-04-22 21:03 | 45.11659 | 9.31258 | 4462 ft | 222 kts | 355° |
| 2026-04-22 21:03 | 45.13180 | 9.31092 | 4289 ft | 222 kts | 355° |
| 2026-04-22 21:03 | 45.14728 | 9.30924 | 4112 ft | 221 kts | 355° |
| 2026-04-22 21:04 | 45.16270 | 9.30756 | 3936 ft | 221 kts | 355° |
| 2026-04-22 21:04 | 45.17797 | 9.30589 | 3761 ft | 220 kts | 355° |
| 2026-04-22 21:04 | 45.19304 | 9.30426 | 3585 ft | 216 kts | 355° |
| 2026-04-22 21:04 | 45.20792 | 9.30264 | 3407 ft | 211 kts | 355° |
| 2026-04-22 21:05 | 45.22216 | 9.30110 | 3231 ft | 206 kts | 355° |
| 2026-04-22 21:05 | 45.23624 | 9.29957 | 3064 ft | 200 kts | 355° |
| 2026-04-22 21:05 | 45.24982 | 9.29810 | 3035 ft | 192 kts | 356° |
| 2026-04-22 21:05 | 45.26314 | 9.29667 | 3031 ft | 190 kts | 356° |
| 2026-04-22 21:06 | 45.27618 | 9.29526 | 3031 ft | 189 kts | 356° |
| 2026-04-22 21:06 | 45.28911 | 9.29387 | 3031 ft | 189 kts | 356° |
| 2026-04-22 21:06 | 45.30229 | 9.29245 | 2905 ft | 189 kts | 356° |
| 2026-04-22 21:06 | 45.31536 | 9.29104 | 2657 ft | 189 kts | 355° |
| 2026-04-22 21:07 | 45.32842 | 9.28963 | 2444 ft | 186 kts | 355° |
| 2026-04-22 21:07 | 45.34092 | 9.28828 | 2219 ft | 181 kts | 355° |
| 2026-04-22 21:07 | 45.35313 | 9.28697 | 1964 ft | 169 kts | 355° |
| 2026-04-22 21:07 | 45.36442 | 9.28575 | 1725 ft | 159 kts | 355° |
| 2026-04-22 21:08 | 45.37495 | 9.28462 | 1501 ft | 150 kts | 355° |
| 2026-04-22 21:08 | 45.38500 | 9.28356 | 1280 ft | 141 kts | 355° |
| 2026-04-22 21:08 | 45.39460 | 9.28256 | 1137 ft | 140 kts | 355° |
| 2026-04-22 21:08 | 45.40437 | 9.28143 | 977 ft | 141 kts | 355° |
| 2026-04-22 21:09 | 45.41408 | 9.28031 | 773 ft | 140 kts | 355° |
| 2026-04-22 21:09 | 45.42370 | 9.27929 | 605 ft | 139 kts | 355° |
| 2026-04-22 21:09 | 45.43327 | 9.27833 | 434 ft | 139 kts | 355° |
| 2026-04-22 21:09 | 45.44266 | 9.27732 | 346 ft | 127 kts | 355° |
| 2026-04-22 21:10 | 45.44984 | 9.27655 | 356 ft | 76 kts | 355° |
| 2026-04-22 21:10 | 45.45275 | 9.27647 | 351 ft | 31 kts | 16° |
| 2026-04-22 21:10 | 45.45444 | 9.27760 | 350 ft | 24 kts | 38° |
| 2026-04-22 21:10 | 45.45550 | 9.27811 | 350 ft | 14 kts | 0° |
| 2026-04-22 21:11 | 45.45651 | 9.27814 | 352 ft | 14 kts | 1° |
| 2026-04-22 21:11 | 45.45744 | 9.27817 | 355 ft | 11 kts | 1° |
| 2026-04-22 21:11 | 45.45777 | 9.27866 | 356 ft | 8 kts | 91° |
| 2026-04-22 21:11 | 45.45776 | 9.27903 | 356 ft | 0 kts | 93° |